createdAt,value
2019-02-07T00:01:30.442Z,5.86
2019-02-07T00:04:00.059Z,5.81
2019-02-07T00:06:29.725Z,5.59
2019-02-07T00:08:59.286Z,5.55
2019-02-07T00:11:28.955Z,5.58
2019-02-07T00:13:58.891Z,5.55
2019-02-07T00:16:28.578Z,5.46
2019-02-07T00:18:58.415Z,5.41
2019-02-07T00:21:28.116Z,5.50
2019-02-07T00:23:57.785Z,5.58
2019-02-07T00:26:27.517Z,5.57
2019-02-07T00:28:57.175Z,5.51
2019-02-07T00:31:26.792Z,5.42
2019-02-07T00:33:56.452Z,5.37
2019-02-07T00:36:26.108Z,5.37
2019-02-07T00:38:55.769Z,5.35
2019-02-07T00:41:25.548Z,4.76
2019-02-07T00:43:55.690Z,4.51
2019-02-07T00:46:25.333Z,4.83
2019-02-07T00:48:55.011Z,5.14
2019-02-07T00:51:24.658Z,5.21
2019-02-07T00:53:54.425Z,5.24
2019-02-07T00:56:23.995Z,5.27
2019-02-07T00:58:53.972Z,5.22
2019-02-07T01:01:23.632Z,5.21
2019-02-07T01:03:53.394Z,5.05
2019-02-07T01:06:23.050Z,4.66
2019-02-07T01:08:52.674Z,4.77
2019-02-07T01:11:22.232Z,4.95
2019-02-07T01:13:52.028Z,5.11
2019-02-07T01:16:21.682Z,5.27
2019-02-07T01:18:51.229Z,5.37
2019-02-07T01:21:20.991Z,5.41
2019-02-07T01:23:50.649Z,5.32
2019-02-07T01:26:20.297Z,5.24
2019-02-07T01:28:49.945Z,5.24
2019-02-07T01:31:19.507Z,5.36
2019-02-07T01:33:49.178Z,5.44
2019-02-07T01:36:18.780Z,5.47
2019-02-07T01:38:48.513Z,5.51
2019-02-07T01:41:18.468Z,5.55
2019-02-07T01:43:48.234Z,4.78
2019-02-07T01:46:18.064Z,4.33
2019-02-07T01:48:47.751Z,4.31
2019-02-07T01:51:17.386Z,3.67
2019-02-07T01:53:47.132Z,3.66
2019-02-07T01:56:17.039Z,3.22
2019-02-07T01:58:46.612Z,3.49
2019-02-07T02:01:16.304Z,4.14
2019-02-07T02:03:45.933Z,4.45
2019-02-07T02:06:15.524Z,4.58
2019-02-07T02:08:45.243Z,4.56
2019-02-07T02:11:14.959Z,3.97
2019-02-07T02:13:44.613Z,3.94
2019-02-07T02:16:14.236Z,3.88
2019-02-07T02:18:43.817Z,4.10
2019-02-07T02:21:13.486Z,4.51
2019-02-07T02:23:43.117Z,4.83
2019-02-07T02:26:12.894Z,4.83
2019-02-07T02:28:42.455Z,4.74
2019-02-07T02:31:12.105Z,4.82
2019-02-07T02:33:41.667Z,4.68
2019-02-07T02:36:11.412Z,3.29
2019-02-07T02:38:41.064Z,2.45
2019-02-07T02:41:10.947Z,2.37
2019-02-07T02:43:40.729Z,2.88
2019-02-07T02:46:10.565Z,3.58
2019-02-07T02:48:40.443Z,4.03
2019-02-07T02:51:10.089Z,4.41
2019-02-07T02:53:39.934Z,4.70
2019-02-07T02:56:09.730Z,4.85
2019-02-07T02:58:39.665Z,4.98
2019-02-07T03:01:28.415Z,5.02
2019-02-07T03:04:29.258Z,5.01
2019-02-07T03:07:16.781Z,4.46
2019-02-07T03:10:05.743Z,4.72
2019-02-07T03:12:53.174Z,4.98
2019-02-07T03:15:53.809Z,5.14
2019-02-07T03:18:41.034Z,5.05
2019-02-07T03:21:28.490Z,5.03
2019-02-07T03:24:35.230Z,5.01
2019-02-07T03:27:21.243Z,4.97
2019-02-07T03:30:15.721Z,4.79
2019-02-07T03:33:03.242Z,4.87
2019-02-07T03:36:03.998Z,4.96
2019-02-07T03:38:51.741Z,5.07
2019-02-07T03:41:39.241Z,5.15
2019-02-07T03:44:27.804Z,5.04
2019-02-07T03:47:25.659Z,4.80
2019-02-07T03:50:20.170Z,4.80
2019-02-07T03:53:18.022Z,4.95
2019-02-07T03:56:19.475Z,5.06
2019-02-07T03:59:08.131Z,5.16
2019-02-07T04:02:03.441Z,5.24
2019-02-07T04:04:45.028Z,5.37
2019-02-07T04:07:43.215Z,5.41
2019-02-07T04:10:15.421Z,5.40
2019-02-07T04:13:19.011Z,5.25
2019-02-07T04:16:02.014Z,5.25
2019-02-07T04:18:58.751Z,5.23
2019-02-07T04:21:46.278Z,5.33
2019-02-07T04:24:53.362Z,5.37
2019-02-07T04:27:40.895Z,5.39
2019-02-07T04:30:33.029Z,5.04
2019-02-07T04:33:21.589Z,5.17
2019-02-07T04:36:11.879Z,5.14
2019-02-07T04:38:59.298Z,4.96
2019-02-07T04:42:03.114Z,4.65
2019-02-07T04:44:50.372Z,3.78
2019-02-07T04:47:39.495Z,3.80
2019-02-07T04:50:35.216Z,4.27
2019-02-07T04:53:22.945Z,4.70
2019-02-07T04:56:10.059Z,4.99
2019-02-07T04:59:10.694Z,5.04
2019-02-07T05:02:11.349Z,4.61
2019-02-07T05:04:57.338Z,4.35
2019-02-07T05:07:59.101Z,4.46
2019-02-07T05:10:53.885Z,4.56
2019-02-07T05:13:42.433Z,4.89
2019-02-07T05:16:38.882Z,4.99
2019-02-07T05:19:18.522Z,4.95
2019-02-07T05:22:09.014Z,4.30
2019-02-07T05:24:53.676Z,3.46
2019-02-07T05:27:49.414Z,2.79
2019-02-07T05:30:31.635Z,2.78
2019-02-07T05:33:32.460Z,2.71
2019-02-07T05:36:30.001Z,3.05
2019-02-07T05:39:18.549Z,3.92
2019-02-07T05:42:05.978Z,4.07
2019-02-07T05:44:57.430Z,4.19
2019-02-07T05:47:44.621Z,4.36
2019-02-07T05:50:27.677Z,4.67
2019-02-07T05:53:16.188Z,4.71
2019-02-07T05:56:08.815Z,4.60
2019-02-07T05:58:51.863Z,4.90
2019-02-07T06:01:49.322Z,4.95
2019-02-07T06:04:31.018Z,5.06
2019-02-07T06:07:18.449Z,4.97
2019-02-07T06:10:16.009Z,5.12
2019-02-07T06:13:07.725Z,4.24
2019-02-07T06:15:57.022Z,3.96
2019-02-07T06:18:51.179Z,4.18
2019-02-07T06:21:58.292Z,4.37
2019-02-07T06:24:46.102Z,4.36
2019-02-07T06:27:41.212Z,3.49
2019-02-07T06:30:21.977Z,3.21
2019-02-07T06:33:22.512Z,2.83
2019-02-07T06:36:08.605Z,3.18
2019-02-07T06:38:55.929Z,2.93
2019-02-07T06:41:47.453Z,2.54
2019-02-07T06:44:39.189Z,2.27
2019-02-07T06:47:27.726Z,2.28
2019-02-07T06:50:16.499Z,2.69
2019-02-07T06:53:03.702Z,3.17
2019-02-07T06:55:52.356Z,3.00
2019-02-07T06:58:41.114Z,2.98
2019-02-07T07:01:27.619Z,3.46
2019-02-07T07:04:25.079Z,3.11
2019-02-07T07:07:16.909Z,3.16
2019-02-07T07:10:05.765Z,3.33
2019-02-07T07:12:53.205Z,3.03
2019-02-07T07:15:41.745Z,3.70
2019-02-07T07:18:29.401Z,4.24
2019-02-07T07:21:23.864Z,3.38
2019-02-07T07:24:21.631Z,2.87
2019-02-07T07:27:19.713Z,2.44
2019-02-07T07:30:27.413Z,2.54
2019-02-07T07:33:21.219Z,2.71
2019-02-07T07:36:00.540Z,3.00
2019-02-07T07:38:44.890Z,3.38
2019-02-07T07:41:33.647Z,3.92
2019-02-07T07:44:25.467Z,4.28
2019-02-07T07:47:09.530Z,3.98
2019-02-07T07:49:47.939Z,4.23
2019-02-07T07:52:54.596Z,3.38
2019-02-07T07:55:33.935Z,3.66
2019-02-07T07:58:18.495Z,4.13
2019-02-07T08:01:25.580Z,3.78
2019-02-07T08:04:14.231Z,4.08
2019-02-07T08:07:15.805Z,3.11
2019-02-07T08:10:07.323Z,2.64
2019-02-07T08:13:01.810Z,2.32
2019-02-07T08:16:02.447Z,2.28
2019-02-07T08:18:50.991Z,2.54
2019-02-07T08:21:29.464Z,2.44
2019-02-07T08:24:23.074Z,2.48
2019-02-07T08:27:15.778Z,2.82
2019-02-07T08:29:57.619Z,2.80
2019-02-07T08:32:39.315Z,3.11
2019-02-07T08:35:17.336Z,3.23
2019-02-07T08:38:09.144Z,3.29
2019-02-07T08:41:12.895Z,2.97
2019-02-07T08:44:01.216Z,2.98
2019-02-07T08:46:49.897Z,3.45
2019-02-07T08:49:35.485Z,3.56
2019-02-07T08:52:32.999Z,3.85
2019-02-07T08:55:24.623Z,3.78
2019-02-07T08:58:08.465Z,3.89
2019-02-07T09:01:06.035Z,4.46
2019-02-07T09:03:47.718Z,4.52
2019-02-07T09:06:36.489Z,3.94
2019-02-07T09:09:44.690Z,3.82
2019-02-07T09:12:51.988Z,3.74
2019-02-07T09:15:49.338Z,3.10
2019-02-07T09:18:36.255Z,3.10
2019-02-07T09:21:34.327Z,2.77
2019-02-07T09:24:35.041Z,2.68
2019-02-07T09:27:41.436Z,2.95
2019-02-07T09:30:31.419Z,2.76
2019-02-07T09:33:14.451Z,3.16
2019-02-07T09:36:11.901Z,2.94
2019-02-07T09:38:59.332Z,2.84
2019-02-07T09:41:56.683Z,3.07
2019-02-07T09:44:45.229Z,2.57
2019-02-07T09:47:46.849Z,2.71
2019-02-07T09:50:29.197Z,2.73
2019-02-07T09:53:24.092Z,2.76
2019-02-07T09:56:06.510Z,2.80
2019-02-07T09:58:51.325Z,2.80
2019-02-07T10:01:38.695Z,2.65
2019-02-07T10:04:27.468Z,2.38
2019-02-07T10:07:23.186Z,2.66
2019-02-07T10:10:08.963Z,3.13
2019-02-07T10:12:56.488Z,3.64
2019-02-07T10:16:00.301Z,3.25
2019-02-07T10:18:47.625Z,2.87
2019-02-07T10:21:37.009Z,3.13
2019-02-07T10:24:34.764Z,2.71
2019-02-07T10:27:23.629Z,3.17
2019-02-07T10:30:11.571Z,3.18
2019-02-07T10:33:06.273Z,2.93
2019-02-07T10:35:53.592Z,2.88
2019-02-07T10:38:45.413Z,2.95
2019-02-07T10:41:33.149Z,2.74
2019-02-07T10:44:20.158Z,2.94
2019-02-07T10:47:08.810Z,3.05
2019-02-07T10:49:59.270Z,3.45
2019-02-07T10:52:46.222Z,3.14
2019-02-07T10:55:37.740Z,3.42
2019-02-07T10:58:29.469Z,3.37
2019-02-07T11:01:26.929Z,3.15
2019-02-07T11:04:20.292Z,2.99
2019-02-07T11:07:20.725Z,3.02
2019-02-07T11:10:21.665Z,2.87
2019-02-07T11:13:28.342Z,2.74
2019-02-07T11:16:17.100Z,2.95
2019-02-07T11:19:08.421Z,3.13
2019-02-07T11:22:03.112Z,3.55
2019-02-07T11:25:09.890Z,3.10
2019-02-07T11:27:57.215Z,3.26
2019-02-07T11:30:40.142Z,3.38
2019-02-07T11:33:21.415Z,3.17
2019-02-07T11:36:13.366Z,3.10
2019-02-07T11:39:01.909Z,3.11
2019-02-07T11:41:49.123Z,3.21
2019-02-07T11:44:52.842Z,3.83
2019-02-07T11:47:49.061Z,4.12
2019-02-07T11:50:36.605Z,4.28
2019-02-07T11:53:29.245Z,4.70
2019-02-07T11:56:05.829Z,4.02
2019-02-07T11:59:06.751Z,3.85
2019-02-07T12:01:55.300Z,3.58
2019-02-07T12:04:43.887Z,3.42
2019-02-07T12:07:36.395Z,3.25
2019-02-07T12:10:25.666Z,3.10
2019-02-07T12:13:32.345Z,3.10
2019-02-07T12:16:12.660Z,3.57
2019-02-07T12:19:17.707Z,4.01
2019-02-07T12:22:00.662Z,4.17
2019-02-07T12:24:49.321Z,4.00
2019-02-07T12:27:36.741Z,3.92
2019-02-07T12:30:39.458Z,4.02
2019-02-07T12:33:26.896Z,4.10
2019-02-07T12:36:15.412Z,3.99
2019-02-07T12:39:12.183Z,4.06
2019-02-07T12:42:06.748Z,4.12
2019-02-07T12:44:56.112Z,3.95
2019-02-07T12:47:41.496Z,4.04
2019-02-07T12:50:29.532Z,4.21
2019-02-07T12:53:33.307Z,4.84
2019-02-07T12:56:20.728Z,5.20
2019-02-07T12:59:07.991Z,5.84
2019-02-07T13:01:56.024Z,5.51
2019-02-07T13:04:42.839Z,5.41
2019-02-07T13:07:38.453Z,5.79
2019-02-07T13:10:28.585Z,5.54
2019-02-07T13:13:26.271Z,5.21
2019-02-07T13:16:30.261Z,6.12
2019-02-07T13:19:40.212Z,6.37
2019-02-07T13:22:24.139Z,5.98
2019-02-07T13:25:11.487Z,6.25
2019-02-07T13:28:11.883Z,6.83
2019-02-07T13:31:06.448Z,7.50
2019-02-07T13:33:53.913Z,7.50
2019-02-07T13:36:54.719Z,8.21
2019-02-07T13:39:43.285Z,8.21
2019-02-07T13:42:31.733Z,8.86
2019-02-07T13:45:19.089Z,8.61
2019-02-07T13:48:07.607Z,8.90
2019-02-07T13:50:50.532Z,9.53
2019-02-07T13:53:39.084Z,9.53
2019-02-07T13:56:27.633Z,9.36
2019-02-07T13:59:06.969Z,9.63
2019-02-07T14:02:10.984Z,9.63
2019-02-07T14:04:53.802Z,7.55
2019-02-07T14:07:51.264Z,7.14
2019-02-07T14:10:37.560Z,7.14
2019-02-07T14:13:26.118Z,6.74
2019-02-07T14:16:13.640Z,6.26
2019-02-07T14:19:05.264Z,6.66
2019-02-07T14:21:52.281Z,6.66
2019-02-07T14:24:41.243Z,6.98
2019-02-07T14:27:36.860Z,7.23
2019-02-07T14:30:28.092Z,7.79
2019-02-07T14:33:12.533Z,8.45
2019-02-07T14:36:01.091Z,8.72
2019-02-07T14:38:39.400Z,8.72
2019-02-07T14:41:27.949Z,8.97
2019-02-07T14:44:31.555Z,8.97
2019-02-07T14:47:01.323Z,9.32
2019-02-07T14:49:31.107Z,9.32
2019-02-07T14:52:00.796Z,9.56
2019-02-07T14:54:30.526Z,9.48
2019-02-07T14:57:00.302Z,8.60
2019-02-07T14:59:30.236Z,8.60
2019-02-07T15:01:59.792Z,6.85
2019-02-07T15:04:29.578Z,6.85
2019-02-07T15:06:59.691Z,6.80
2019-02-07T15:09:29.477Z,6.55
2019-02-07T15:11:59.129Z,6.74
2019-02-07T15:14:28.723Z,6.83
2019-02-07T15:16:58.222Z,7.45
2019-02-07T15:19:27.883Z,6.61
2019-02-07T15:21:57.572Z,6.61
2019-02-07T15:24:27.312Z,7.35
2019-02-07T15:26:57.169Z,7.35
2019-02-07T15:29:27.160Z,7.18
2019-02-07T15:31:56.774Z,7.83
2019-02-07T15:34:26.708Z,8.02
2019-02-07T15:36:56.767Z,8.02
2019-02-07T15:39:26.619Z,8.58
2019-02-07T15:42:00.828Z,7.57
2019-02-07T15:44:30.623Z,8.22
2019-02-07T15:47:00.550Z,8.22
2019-02-07T15:49:30.307Z,8.34
2019-02-07T15:52:00.108Z,7.45
2019-02-07T15:54:30.439Z,7.08
2019-02-07T15:57:00.032Z,6.88
2019-02-07T15:59:48.661Z,6.95
2019-02-07T16:02:37.216Z,6.66
2019-02-07T16:05:09.532Z,7.42
2019-02-07T16:07:39.182Z,7.90
2019-02-07T16:10:11.661Z,7.90
2019-02-07T16:12:41.456Z,8.28
2019-02-07T16:15:11.973Z,8.28
2019-02-07T16:17:41.904Z,7.87
2019-02-07T16:20:15.194Z,7.97
2019-02-07T16:22:45.407Z,7.97
2019-02-07T16:25:15.440Z,8.09
2019-02-07T16:27:45.522Z,7.72
2019-02-07T16:30:15.716Z,7.96
2019-02-07T16:32:45.432Z,7.64
2019-02-07T16:35:15.236Z,7.64
2019-02-07T16:37:46.009Z,7.56
2019-02-07T16:40:15.786Z,7.56
2019-02-07T16:42:45.476Z,7.66
2019-02-07T16:45:16.753Z,7.71
2019-02-07T16:47:46.226Z,7.74
2019-02-07T16:50:17.199Z,7.76
2019-02-07T16:52:46.871Z,7.73
2019-02-07T16:55:16.516Z,7.58
2019-02-07T16:57:46.132Z,7.42
2019-02-07T17:00:18.346Z,7.32
2019-02-07T17:02:48.185Z,7.34
2019-02-07T17:05:18.346Z,7.34
2019-02-07T17:07:48.176Z,7.42
2019-02-07T17:10:20.110Z,7.40
2019-02-07T17:12:49.873Z,7.25
2019-02-07T17:15:19.536Z,7.25
2019-02-07T17:17:49.280Z,7.06
2019-02-07T17:20:37.866Z,6.42
2019-02-07T17:23:07.554Z,5.74
2019-02-07T17:25:37.311Z,5.74
2019-02-07T17:28:06.972Z,5.89
2019-02-07T17:30:36.641Z,6.31
2019-02-07T17:33:06.282Z,6.31
2019-02-07T17:35:36.067Z,6.53
2019-02-07T17:38:05.683Z,6.53
2019-02-07T17:40:35.384Z,6.61
2019-02-07T17:43:05.008Z,6.71
2019-02-07T17:45:34.675Z,6.75
2019-02-07T17:48:04.339Z,6.74
2019-02-07T17:50:34.334Z,6.74
2019-02-07T17:53:04.975Z,6.79
2019-02-07T17:55:34.661Z,6.82
2019-02-07T17:58:04.304Z,6.79
2019-02-07T18:00:56.160Z,6.81
2019-02-07T18:03:25.851Z,6.83
2019-02-07T18:05:55.593Z,6.86
2019-02-07T18:08:25.370Z,6.89
2019-02-07T18:10:55.115Z,6.89
2019-02-07T18:13:24.895Z,6.89
2019-02-07T18:15:57.262Z,6.90
2019-02-07T18:18:26.032Z,6.86
2019-02-07T18:20:55.629Z,6.83
2019-02-07T18:23:25.287Z,6.77
2019-02-07T18:25:55.051Z,6.75
2019-02-07T18:28:24.672Z,6.72
2019-02-07T18:30:54.263Z,6.69
2019-02-07T18:33:23.910Z,6.72
2019-02-07T18:35:53.587Z,6.65
2019-02-07T18:38:23.133Z,6.64
2019-02-07T18:40:52.790Z,6.55
2019-02-07T18:43:22.465Z,6.49
2019-02-07T18:45:52.483Z,6.52
2019-02-07T18:48:23.316Z,6.49
2019-02-07T18:50:53.744Z,6.50
2019-02-07T18:53:24.186Z,6.45
2019-02-07T18:55:56.533Z,6.51
2019-02-07T18:58:27.073Z,6.64
2019-02-07T19:00:56.769Z,6.76
2019-02-07T19:03:26.411Z,6.75
2019-02-07T19:05:56.811Z,6.81
2019-02-07T19:08:26.865Z,6.82
2019-02-07T19:10:56.481Z,6.76
2019-02-07T19:13:26.090Z,6.74
2019-02-07T19:16:03.344Z,6.73
2019-02-07T19:18:33.074Z,6.71
2019-02-07T19:21:03.057Z,6.71
2019-02-07T19:23:32.712Z,6.57
2019-02-07T19:26:03.612Z,6.45
2019-02-07T19:28:33.543Z,5.42
2019-02-07T19:31:05.131Z,4.44
2019-02-07T19:33:36.400Z,4.35
2019-02-07T19:36:08.168Z,4.37
2019-02-07T19:38:39.033Z,4.80
2019-02-07T19:41:08.750Z,5.19
2019-02-07T19:43:38.497Z,5.08
2019-02-07T19:46:08.241Z,5.02
2019-02-07T19:48:37.958Z,5.28
2019-02-07T19:51:07.722Z,5.56
2019-02-07T19:53:37.319Z,5.80
2019-02-07T19:56:08.088Z,6.01
2019-02-07T19:58:37.655Z,5.95
2019-02-07T20:01:07.986Z,5.89
2019-02-07T20:03:38.964Z,5.93
2019-02-07T20:06:08.496Z,6.20
2019-02-07T20:08:38.232Z,6.25
2019-02-07T20:11:10.170Z,6.29
2019-02-07T20:13:40.606Z,6.35
2019-02-07T20:16:10.184Z,6.43
2019-02-07T20:18:40.159Z,6.43
2019-02-07T20:21:10.079Z,6.51
2019-02-07T20:23:39.915Z,6.52
2019-02-07T20:26:12.911Z,6.48
2019-02-07T20:28:42.581Z,6.49
2019-02-07T20:31:13.409Z,6.50
2019-02-07T20:33:45.315Z,6.43
2019-02-07T20:36:17.275Z,6.47
2019-02-07T20:38:46.840Z,6.52
2019-02-07T20:41:16.607Z,6.53
2019-02-07T20:43:46.972Z,6.61
2019-02-07T20:46:16.639Z,6.53
2019-02-07T20:48:46.606Z,6.46
2019-02-07T20:51:16.289Z,6.03
2019-02-07T20:53:46.174Z,5.79
2019-02-07T20:56:15.952Z,5.82
2019-02-07T20:58:45.589Z,5.97
2019-02-07T21:01:15.286Z,6.03
2019-02-07T21:03:44.914Z,6.24
2019-02-07T21:06:14.677Z,6.49
2019-02-07T21:08:44.342Z,6.63
2019-02-07T21:11:13.990Z,6.80
2019-02-07T21:13:43.665Z,6.82
2019-02-07T21:16:13.300Z,6.93
2019-02-07T21:18:42.951Z,7.00
2019-02-07T21:21:12.812Z,7.08
2019-02-07T21:23:42.496Z,7.00
2019-02-07T21:26:12.256Z,6.72
2019-02-07T21:28:41.901Z,6.48
2019-02-07T21:31:11.605Z,6.22
2019-02-07T21:33:41.343Z,6.08
2019-02-07T21:36:12.546Z,6.03
2019-02-07T21:38:42.188Z,6.08
2019-02-07T21:41:13.577Z,6.29
2019-02-07T21:43:43.311Z,6.51
2019-02-07T21:46:12.896Z,6.64
2019-02-07T21:48:42.631Z,6.75
2019-02-07T21:51:12.251Z,6.84
2019-02-07T21:53:42.189Z,6.89
2019-02-07T21:56:11.838Z,6.88
2019-02-07T21:58:41.537Z,6.78
2019-02-07T22:01:11.190Z,6.83
2019-02-07T22:03:40.817Z,6.98
2019-02-07T22:06:11.127Z,6.93
2019-02-07T22:08:40.757Z,6.92
2019-02-07T22:11:10.435Z,6.87
2019-02-07T22:13:40.065Z,6.91
2019-02-07T22:16:09.628Z,6.90
2019-02-07T22:18:39.317Z,6.79
2019-02-07T22:21:08.849Z,6.84
2019-02-07T22:23:38.528Z,6.84
2019-02-07T22:26:08.192Z,6.85
2019-02-07T22:28:37.922Z,6.82
2019-02-07T22:31:07.557Z,6.86
2019-02-07T22:33:37.231Z,6.88
2019-02-07T22:36:07.019Z,6.94
2019-02-07T22:38:39.097Z,6.98
2019-02-07T22:41:08.798Z,7.00
2019-02-07T22:43:38.555Z,6.98
2019-02-07T22:46:08.521Z,7.03
2019-02-07T22:48:38.145Z,7.05
2019-02-07T22:51:07.711Z,7.00
2019-02-07T22:53:37.414Z,6.86
2019-02-07T22:56:07.056Z,6.90
2019-02-07T22:58:36.483Z,6.94
2019-02-07T23:01:31.731Z,6.94
2019-02-07T23:04:03.079Z,6.81
2019-02-07T23:06:32.681Z,6.80
2019-02-07T23:09:02.263Z,6.91
2019-02-07T23:11:31.926Z,6.97
2019-02-07T23:14:01.703Z,6.97
2019-02-07T23:16:31.629Z,6.97
2019-02-07T23:19:01.335Z,7.04
2019-02-07T23:21:30.975Z,7.10
2019-02-07T23:24:00.561Z,7.11
2019-02-07T23:26:30.136Z,7.08
2019-02-07T23:28:59.796Z,7.14
2019-02-07T23:31:29.537Z,7.16
2019-02-07T23:33:59.216Z,7.02
2019-02-07T23:36:28.870Z,7.03
2019-02-07T23:38:58.427Z,7.05
2019-02-07T23:41:28.093Z,7.04
2019-02-07T23:43:57.764Z,7.04
2019-02-07T23:46:27.719Z,6.96
2019-02-07T23:48:57.386Z,7.00
2019-02-07T23:51:26.993Z,6.93
2019-02-07T23:53:56.561Z,6.95
2019-02-07T23:56:26.319Z,6.91
2019-02-07T23:58:55.920Z,6.83
